Sunday, July 5, 2015, 7:30 PM EDT

KDOV, Dover Air Force Base

Location: Dover, DE, United States Lat: 39.133
Local Time: 7:30 PM EDT (23:30 GMT) Lon: -75.467
Time Zone: US/Eastern Elev: 29 ft

Show me the last for .
Show Decoded

2015-07-05 18:58 METAR KDOV 052258Z AUTO 12008KT 10SM CLR 24/21 A3011 RMK AO2 SLP199 T02400206
                 VISNO RWY19 CHINO RWY19 $ =
2015-07-05 17:58 METAR KDOV 052158Z AUTO 11008KT 10SM CLR 25/19 A3010 RMK AO2 SLP196 T02480194
                 VISNO RWY19 CHINO RWY19 $ =
2015-07-05 16:58 METAR KDOV 052058Z AUTO 10009KT 10SM CLR 25/20 A3011 RMK AO2 SLP199 T02500199
                 56006 VISNO RWY19 CHINO RWY19 $ =
2015-07-05 15:58 METAR KDOV 051958Z AUTO 09009KT 10SM CLR 26/21 A3011 RMK AO2 SLP199 T02630206
                 VISNO RWY19 CHINO RWY19 $ =
2015-07-05 14:58 METAR KDOV 051858Z AUTO 08007KT 10SM FEW210 26/21 A3012 RMK AO2 SLP203 T02630210
                 VISNO RWY19 CHINO RWY19 $ =
2015-07-05 13:58 METAR KDOV 051758Z AUTO 12006KT 10SM CLR 26/21 A3013 RMK AO2 SLP206 T02570205
                 10260 20225 58003 VISNO RWY19 CHINO RWY19 $ =
2015-07-05 12:58 METAR KDOV 051658Z AUTO 07009KT 10SM FEW029 26/20 A3014 =
2015-07-05 12:38 METAR KDOV 051638Z AUTO 07007KT 10SM SCT029 BKN130 BKN200 26/20 A3015 RMK AO2
                 VISNO RWY19 CHINO RWY19 $ =
2015-07-05 12:33 METAR KDOV 051633Z AUTO 09007KT 10SM BKN028 26/20 A3015 RMK AO2 BKN V SCT VISNO
                 RWY19 CHINO RWY19 $ =
2015-07-05 11:58 METAR KDOV 051558Z AUTO 10006KT 10SM FEW024 SCT200 26/20 A3015 =
2015-07-05 10:58 METAR KDOV 051458Z AUTO 11005KT 10SM FEW020 25/20 A3014 RMK AO2 SLP209 T02460204
                 52011 VISNO RWY19 CHINO RWY19 $ =
2015-07-05 10:33 METAR KDOV 051433Z AUTO VRB02KT 10SM SCT020 24/20 A3014 RMK AO2 VISNO RWY19
                 CHINO RWY19 $ =
2015-07-05 10:13 METAR KDOV 051413Z AUTO 12004KT 10SM BKN018 24/20 A3013 RMK AO2 BKN V SCT VISNO
                 RWY19 CHINO RWY19 $ =
2015-07-05 10:08 METAR KDOV 051408Z AUTO 12005KT 10SM SCT018 24/20 A3013 RMK AO2 VISNO RWY19
                 CHINO RWY19 $ =
2015-07-05 09:58 METAR KDOV 051358Z AUTO 11004KT 10SM BKN018 24/20 A3013 =
2015-07-05 08:58 METAR KDOV 051258Z AUTO 10004KT 10SM CLR 23/20 A3012 =
2015-07-05 07:58 METAR KDOV 051158Z AUTO 12004KT 10SM CLR 22/20 A3011 =
2015-07-05 06:58 METAR KDOV 051058Z AUTO 36003KT 10SM SCT023 20/20 A3009 =
2015-07-05 05:58 METAR KDOV 050958Z AUTO 35006KT 9SM BKN027 18/18 A3006 RMK AO2 BKN V SCT SLP182
                 T01800180 VISNO RWY19 CHINO RWY19 $ =
2015-07-05 05:53 METAR KDOV 050953Z AUTO 35006KT 9SM BKN027 18/18 A3005 =
2015-07-05 04:58 METAR KDOV 050858Z AUTO 10002KT 10SM CLR 19/19 A3004 RMK AO2 SLP176 T01890189
                 52009 VISNO RWY19 CHINO RWY19 $ =
2015-07-05 03:58 METAR KDOV 050758Z AUTO 33003KT 10SM FEW021 OVC038 19/19 A3004 RMK AO2 SLP176
                 T01890189 VISNO RWY19 CHINO RWY19 $ =
2015-07-05 03:48 METAR KDOV 050748Z AUTO 32003KT 10SM SCT021 OVC038 19/19 A3004 RMK AO2 VISNO
                 RWY19 CHINO RWY19 $ =
2015-07-05 03:23 METAR KDOV 050723Z AUTO 35003KT 10SM BKN021 19/19 A3003 RMK AO2 CIG 021V037 BKN
                 V SCT VISNO RWY19 CHINO RWY19 $ =
2015-07-05 02:58 METAR KDOV 050658Z AUTO 33003KT 10SM BKN038 19/19 A3003 RMK AO2 SLP172 T01900190
                 VISNO RWY19 CHINO RWY19 $ =
2015-07-05 01:58 METAR KDOV 050558Z AUTO 33003KT 10SM CLR 19/19 A3002 RMK AO2 SLP169 T01890188
                 10228 20188 50014 VISNO RWY19 CHINO RWY19 $ =
2015-07-05 00:58 METAR KDOV 050458Z AUTO 00000KT 10SM SCT037 21/17 A3002 =
2015-07-05 00:48 METAR KDOV 050448Z AUTO 00000KT 9SM R01/5500FT SCT037 SCT060 21/17 A3002 RMK AO2
                 =
2015-07-04 23:58 METAR KDOV 050358Z AUTO 13004KT 10SM OVC034 22/17 A3001 =
2015-07-04 22:58 METAR KDOV 050258Z AUTO 10005KT 10SM FEW040 21/17 A2998 RMK AO2 SLP155 T02060171
                 50012 VISNO RWY19 CHINO RWY19 $ =
2015-07-04 21:58 METAR KDOV 050158Z AUTO 12006KT 10SM OVC035 22/18 A2998 RMK AO2 SLP155 T02220181
                 VISNO RWY19 CHINO RWY19 $ =
2015-07-04 20:58 METAR KDOV 050058Z AUTO 12009KT 10SM OVC034 22/19 A2996 RMK AO2 SLP148 T02230193
                 VISNO RWY19 CHINO RWY19 $ =
2015-07-04 19:58 METAR KDOV 042358Z AUTO 13006KT 10SM SCT034 BKN043 23/20 A2994 =

Support USWX by starting your Amazon purchase here.